sensor_id;sensor_type;location;lat;lon;timestamp;P1;durP1;ratioP1;P2;durP2;ratioP2
22015;SDS011;64992;51.698;-0.292;2024-02-14T00:00:42;92.63;;;83.47;;
22015;SDS011;64992;51.698;-0.292;2024-02-14T00:03:09;89.20;;;80.55;;
22015;SDS011;64992;51.698;-0.292;2024-02-14T00:05:35;90.10;;;74.70;;
22015;SDS011;64992;51.698;-0.292;2024-02-14T00:08:01;86.60;;;78.07;;
22015;SDS011;64992;51.698;-0.292;2024-02-14T00:10:28;89.47;;;80.95;;
22015;SDS011;64992;51.698;-0.292;2024-02-14T00:12:54;88.95;;;79.68;;
22015;SDS011;64992;51.698;-0.292;2024-02-14T00:15:20;94.47;;;80.72;;
22015;SDS011;64992;51.698;-0.292;2024-02-14T00:17:47;95.03;;;80.78;;
22015;SDS011;64992;51.698;-0.292;2024-02-14T00:20:13;91.40;;;81.90;;
22015;SDS011;64992;51.698;-0.292;2024-02-14T00:22:39;89.50;;;80.80;;
22015;SDS011;64992;51.698;-0.292;2024-02-14T00:25:06;87.80;;;79.53;;
22015;SDS011;64992;51.698;-0.292;2024-02-14T00:27:32;92.38;;;83.03;;
22015;SDS011;64992;51.698;-0.292;2024-02-14T00:29:58;97.70;;;82.70;;
22015;SDS011;64992;51.698;-0.292;2024-02-14T00:32:25;90.82;;;82.15;;
22015;SDS011;64992;51.698;-0.292;2024-02-14T00:34:52;91.55;;;79.57;;
22015;SDS011;64992;51.698;-0.292;2024-02-14T00:37:19;90.22;;;80.78;;
22015;SDS011;64992;51.698;-0.292;2024-02-14T00:39:45;95.15;;;82.60;;
22015;SDS011;64992;51.698;-0.292;2024-02-14T00:42:13;96.22;;;81.15;;
22015;SDS011;64992;51.698;-0.292;2024-02-14T00:44:40;88.47;;;79.20;;
22015;SDS011;64992;51.698;-0.292;2024-02-14T00:47:06;102.38;;;81.88;;
22015;SDS011;64992;51.698;-0.292;2024-02-14T00:49:35;87.70;;;78.32;;
22015;SDS011;64992;51.698;-0.292;2024-02-14T00:52:01;101.10;;;82.15;;
22015;SDS011;64992;51.698;-0.292;2024-02-14T00:54:28;102.60;;;80.85;;
22015;SDS011;64992;51.698;-0.292;2024-02-14T00:56:54;92.90;;;81.30;;
22015;SDS011;64992;51.698;-0.292;2024-02-14T00:59:20;89.85;;;80.75;;
22015;SDS011;64992;51.698;-0.292;2024-02-14T01:01:46;110.40;;;81.43;;
22015;SDS011;64992;51.698;-0.292;2024-02-14T01:04:12;91.00;;;75.72;;
22015;SDS011;64992;51.698;-0.292;2024-02-14T01:06:38;98.47;;;82.22;;
22015;SDS011;64992;51.698;-0.292;2024-02-14T01:09:04;101.90;;;80.85;;
22015;SDS011;64992;51.698;-0.292;2024-02-14T01:11:30;89.22;;;80.05;;
22015;SDS011;64992;51.698;-0.292;2024-02-14T01:13:57;92.60;;;81.85;;
22015;SDS011;64992;51.698;-0.292;2024-02-14T01:16:24;89.63;;;80.35;;
22015;SDS011;64992;51.698;-0.292;2024-02-14T01:18:51;92.15;;;77.57;;
22015;SDS011;64992;51.698;-0.292;2024-02-14T01:21:17;91.95;;;84.07;;
22015;SDS011;64992;51.698;-0.292;2024-02-14T01:23:43;99.13;;;86.82;;
22015;SDS011;64992;51.698;-0.292;2024-02-14T01:26:09;89.82;;;79.07;;
22015;SDS011;64992;51.698;-0.292;2024-02-14T01:28:35;89.80;;;80.38;;
22015;SDS011;64992;51.698;-0.292;2024-02-14T01:31:03;92.80;;;83.43;;
22015;SDS011;64992;51.698;-0.292;2024-02-14T01:33:29;93.28;;;83.32;;
22015;SDS011;64992;51.698;-0.292;2024-02-14T01:35:55;95.78;;;85.65;;
22015;SDS011;64992;51.698;-0.292;2024-02-14T01:38:22;96.75;;;86.57;;
22015;SDS011;64992;51.698;-0.292;2024-02-14T01:40:49;96.60;;;87.07;;
22015;SDS011;64992;51.698;-0.292;2024-02-14T01:43:15;95.25;;;85.82;;
22015;SDS011;64992;51.698;-0.292;2024-02-14T01:45:41;106.82;;;98.07;;
22015;SDS011;64992;51.698;-0.292;2024-02-14T01:48:07;106.93;;;97.28;;
22015;SDS011;64992;51.698;-0.292;2024-02-14T01:50:34;105.38;;;96.05;;
22015;SDS011;64992;51.698;-0.292;2024-02-14T01:53:01;104.60;;;95.68;;
22015;SDS011;64992;51.698;-0.292;2024-02-14T01:55:27;105.25;;;95.00;;
22015;SDS011;64992;51.698;-0.292;2024-02-14T01:57:53;111.22;;;99.10;;
22015;SDS011;64992;51.698;-0.292;2024-02-14T02:00:20;102.63;;;94.88;;
22015;SDS011;64992;51.698;-0.292;2024-02-14T02:02:46;105.60;;;97.75;;
22015;SDS011;64992;51.698;-0.292;2024-02-14T02:05:13;106.45;;;98.00;;
22015;SDS011;64992;51.698;-0.292;2024-02-14T02:07:39;104.97;;;96.78;;
22015;SDS011;64992;51.698;-0.292;2024-02-14T02:10:08;102.55;;;94.35;;
22015;SDS011;64992;51.698;-0.292;2024-02-14T02:12:35;105.05;;;96.38;;
22015;SDS011;64992;51.698;-0.292;2024-02-14T02:15:06;102.28;;;94.85;;
22015;SDS011;64992;51.698;-0.292;2024-02-14T02:17:36;102.75;;;94.78;;
22015;SDS011;64992;51.698;-0.292;2024-02-14T02:20:02;102.63;;;95.28;;
22015;SDS011;64992;51.698;-0.292;2024-02-14T02:22:32;101.22;;;93.78;;
22015;SDS011;64992;51.698;-0.292;2024-02-14T02:25:00;105.30;;;96.70;;
22015;SDS011;64992;51.698;-0.292;2024-02-14T02:27:27;106.30;;;98.47;;
22015;SDS011;64992;51.698;-0.292;2024-02-14T02:29:53;102.32;;;95.05;;
22015;SDS011;64992;51.698;-0.292;2024-02-14T02:32:19;103.20;;;95.00;;
22015;SDS011;64992;51.698;-0.292;2024-02-14T02:34:45;105.72;;;97.13;;
22015;SDS011;64992;51.698;-0.292;2024-02-14T02:37:11;102.13;;;95.05;;
22015;SDS011;64992;51.698;-0.292;2024-02-14T02:39:37;100.43;;;93.40;;
22015;SDS011;64992;51.698;-0.292;2024-02-14T02:42:03;105.38;;;97.22;;
22015;SDS011;64992;51.698;-0.292;2024-02-14T02:44:30;103.97;;;96.43;;
22015;SDS011;64992;51.698;-0.292;2024-02-14T02:46:57;104.53;;;95.40;;
22015;SDS011;64992;51.698;-0.292;2024-02-14T02:49:23;102.60;;;95.53;;
22015;SDS011;64992;51.698;-0.292;2024-02-14T02:51:50;103.38;;;95.80;;
22015;SDS011;64992;51.698;-0.292;2024-02-14T02:54:17;106.47;;;98.00;;
22015;SDS011;64992;51.698;-0.292;2024-02-14T02:56:43;102.35;;;95.72;;
22015;SDS011;64992;51.698;-0.292;2024-02-14T02:59:09;103.43;;;96.45;;
22015;SDS011;64992;51.698;-0.292;2024-02-14T03:01:36;106.15;;;98.20;;
22015;SDS011;64992;51.698;-0.292;2024-02-14T03:04:03;107.82;;;99.50;;
22015;SDS011;64992;51.698;-0.292;2024-02-14T03:06:29;104.80;;;97.60;;
22015;SDS011;64992;51.698;-0.292;2024-02-14T03:08:56;105.72;;;98.32;;
22015;SDS011;64992;51.698;-0.292;2024-02-14T03:11:22;106.75;;;98.50;;
22015;SDS011;64992;51.698;-0.292;2024-02-14T03:13:51;103.00;;;95.72;;
22015;SDS011;64992;51.698;-0.292;2024-02-14T03:16:17;102.25;;;94.57;;
22015;SDS011;64992;51.698;-0.292;2024-02-14T03:18:43;105.47;;;98.15;;
22015;SDS011;64992;51.698;-0.292;2024-02-14T03:21:10;107.32;;;99.45;;
22015;SDS011;64992;51.698;-0.292;2024-02-14T03:23:37;110.32;;;101.68;;
22015;SDS011;64992;51.698;-0.292;2024-02-14T03:26:05;104.20;;;96.68;;
22015;SDS011;64992;51.698;-0.292;2024-02-14T03:28:32;112.85;;;104.63;;
22015;SDS011;64992;51.698;-0.292;2024-02-14T03:30:58;109.15;;;101.45;;
22015;SDS011;64992;51.698;-0.292;2024-02-14T03:33:24;112.38;;;104.10;;
22015;SDS011;64992;51.698;-0.292;2024-02-14T03:35:51;106.50;;;99.53;;
22015;SDS011;64992;51.698;-0.292;2024-02-14T03:38:29;106.72;;;99.63;;
22015;SDS011;64992;51.698;-0.292;2024-02-14T03:40:56;106.78;;;99.18;;
22015;SDS011;64992;51.698;-0.292;2024-02-14T03:43:22;106.10;;;99.22;;
22015;SDS011;64992;51.698;-0.292;2024-02-14T03:45:49;106.97;;;100.28;;
22015;SDS011;64992;51.698;-0.292;2024-02-14T03:48:16;109.10;;;101.88;;
22015;SDS011;64992;51.698;-0.292;2024-02-14T03:50:42;104.57;;;97.80;;
22015;SDS011;64992;51.698;-0.292;2024-02-14T03:53:09;106.25;;;99.05;;
22015;SDS011;64992;51.698;-0.292;2024-02-14T03:55:36;103.88;;;97.50;;
22015;SDS011;64992;51.698;-0.292;2024-02-14T03:58:03;106.47;;;99.38;;
22015;SDS011;64992;51.698;-0.292;2024-02-14T04:00:30;108.35;;;101.35;;
22015;SDS011;64992;51.698;-0.292;2024-02-14T04:02:56;108.22;;;101.03;;
22015;SDS011;64992;51.698;-0.292;2024-02-14T04:05:26;104.15;;;98.07;;
22015;SDS011;64992;51.698;-0.292;2024-02-14T04:07:53;106.20;;;99.32;;
22015;SDS011;64992;51.698;-0.292;2024-02-14T04:10:19;104.35;;;97.25;;
22015;SDS011;64992;51.698;-0.292;2024-02-14T04:12:46;105.25;;;98.70;;
22015;SDS011;64992;51.698;-0.292;2024-02-14T04:15:12;104.40;;;97.80;;
22015;SDS011;64992;51.698;-0.292;2024-02-14T04:17:41;105.22;;;98.85;;
22015;SDS011;64992;51.698;-0.292;2024-02-14T04:20:08;101.07;;;95.00;;
22015;SDS011;64992;51.698;-0.292;2024-02-14T04:22:34;100.43;;;94.32;;
22015;SDS011;64992;51.698;-0.292;2024-02-14T04:25:00;100.95;;;94.60;;
22015;SDS011;64992;51.698;-0.292;2024-02-14T04:27:27;101.03;;;94.90;;
22015;SDS011;64992;51.698;-0.292;2024-02-14T04:29:53;102.88;;;96.40;;
22015;SDS011;64992;51.698;-0.292;2024-02-14T04:32:19;103.05;;;97.10;;
22015;SDS011;64992;51.698;-0.292;2024-02-14T04:34:45;103.20;;;96.93;;
22015;SDS011;64992;51.698;-0.292;2024-02-14T04:37:12;102.38;;;95.88;;
22015;SDS011;64992;51.698;-0.292;2024-02-14T04:39:39;104.18;;;98.35;;
22015;SDS011;64992;51.698;-0.292;2024-02-14T04:42:05;106.07;;;99.07;;
22015;SDS011;64992;51.698;-0.292;2024-02-14T04:44:31;105.85;;;98.95;;
22015;SDS011;64992;51.698;-0.292;2024-02-14T04:46:58;103.60;;;97.18;;
22015;SDS011;64992;51.698;-0.292;2024-02-14T04:49:24;103.10;;;96.78;;
22015;SDS011;64992;51.698;-0.292;2024-02-14T04:51:53;103.53;;;96.82;;
22015;SDS011;64992;51.698;-0.292;2024-02-14T04:54:20;103.18;;;96.43;;
22015;SDS011;64992;51.698;-0.292;2024-02-14T04:56:46;104.30;;;98.10;;
22015;SDS011;64992;51.698;-0.292;2024-02-14T04:59:12;106.78;;;99.80;;
22015;SDS011;64992;51.698;-0.292;2024-02-14T05:01:38;105.28;;;99.15;;
22015;SDS011;64992;51.698;-0.292;2024-02-14T05:04:05;104.15;;;97.20;;
22015;SDS011;64992;51.698;-0.292;2024-02-14T05:06:32;102.07;;;95.35;;
22015;SDS011;64992;51.698;-0.292;2024-02-14T05:08:58;101.97;;;95.65;;
22015;SDS011;64992;51.698;-0.292;2024-02-14T05:11:24;102.82;;;96.80;;
22015;SDS011;64992;51.698;-0.292;2024-02-14T05:13:50;104.05;;;97.22;;
22015;SDS011;64992;51.698;-0.292;2024-02-14T05:16:19;103.35;;;96.63;;
22015;SDS011;64992;51.698;-0.292;2024-02-14T05:18:45;103.10;;;97.10;;
22015;SDS011;64992;51.698;-0.292;2024-02-14T05:21:12;103.45;;;97.20;;
22015;SDS011;64992;51.698;-0.292;2024-02-14T05:23:38;107.07;;;99.82;;
22015;SDS011;64992;51.698;-0.292;2024-02-14T05:26:04;106.55;;;99.28;;
22015;SDS011;64992;51.698;-0.292;2024-02-14T05:28:30;105.70;;;98.75;;
22015;SDS011;64992;51.698;-0.292;2024-02-14T05:30:57;109.75;;;102.85;;
22015;SDS011;64992;51.698;-0.292;2024-02-14T05:33:23;107.25;;;100.28;;
22015;SDS011;64992;51.698;-0.292;2024-02-14T05:35:52;105.20;;;98.85;;
22015;SDS011;64992;51.698;-0.292;2024-02-14T05:38:18;111.45;;;104.20;;
22015;SDS011;64992;51.698;-0.292;2024-02-14T05:40:45;108.78;;;101.47;;
22015;SDS011;64992;51.698;-0.292;2024-02-14T05:43:11;108.53;;;100.88;;
22015;SDS011;64992;51.698;-0.292;2024-02-14T05:45:38;107.78;;;99.43;;
22015;SDS011;64992;51.698;-0.292;2024-02-14T05:48:04;109.13;;;100.78;;
22015;SDS011;64992;51.698;-0.292;2024-02-14T05:50:31;106.78;;;99.95;;
22015;SDS011;64992;51.698;-0.292;2024-02-14T05:52:58;110.80;;;103.25;;
22015;SDS011;64992;51.698;-0.292;2024-02-14T05:55:24;108.63;;;101.47;;
22015;SDS011;64992;51.698;-0.292;2024-02-14T05:57:51;109.70;;;101.65;;
22015;SDS011;64992;51.698;-0.292;2024-02-14T06:00:20;109.10;;;100.28;;
22015;SDS011;64992;51.698;-0.292;2024-02-14T06:02:47;107.30;;;100.68;;
22015;SDS011;64992;51.698;-0.292;2024-02-14T06:05:13;110.22;;;102.25;;
22015;SDS011;64992;51.698;-0.292;2024-02-14T06:07:40;108.22;;;100.72;;
22015;SDS011;64992;51.698;-0.292;2024-02-14T06:10:06;116.05;;;106.93;;
22015;SDS011;64992;51.698;-0.292;2024-02-14T06:12:33;110.05;;;101.95;;
22015;SDS011;64992;51.698;-0.292;2024-02-14T06:15:02;107.32;;;99.88;;
22015;SDS011;64992;51.698;-0.292;2024-02-14T06:17:29;107.53;;;99.68;;
22015;SDS011;64992;51.698;-0.292;2024-02-14T06:19:55;105.93;;;98.57;;
22015;SDS011;64992;51.698;-0.292;2024-02-14T06:22:22;106.65;;;98.70;;
22015;SDS011;64992;51.698;-0.292;2024-02-14T06:24:48;106.13;;;97.68;;
22015;SDS011;64992;51.698;-0.292;2024-02-14T06:27:14;102.75;;;94.85;;
22015;SDS011;64992;51.698;-0.292;2024-02-14T06:29:43;106.18;;;98.00;;
22015;SDS011;64992;51.698;-0.292;2024-02-14T06:32:13;112.72;;;104.78;;
22015;SDS011;64992;51.698;-0.292;2024-02-14T06:34:39;107.68;;;99.47;;
22015;SDS011;64992;51.698;-0.292;2024-02-14T06:37:05;108.20;;;100.13;;
22015;SDS011;64992;51.698;-0.292;2024-02-14T06:39:32;105.43;;;97.93;;
22015;SDS011;64992;51.698;-0.292;2024-02-14T06:41:58;108.10;;;99.97;;
22015;SDS011;64992;51.698;-0.292;2024-02-14T06:44:24;107.38;;;99.38;;
22015;SDS011;64992;51.698;-0.292;2024-02-14T06:46:50;108.57;;;99.40;;
22015;SDS011;64992;51.698;-0.292;2024-02-14T06:49:16;110.25;;;101.10;;
22015;SDS011;64992;51.698;-0.292;2024-02-14T06:51:42;107.00;;;99.18;;
22015;SDS011;64992;51.698;-0.292;2024-02-14T06:54:10;112.72;;;103.45;;
22015;SDS011;64992;51.698;-0.292;2024-02-14T06:56:37;109.82;;;101.10;;
22015;SDS011;64992;51.698;-0.292;2024-02-14T06:59:04;108.28;;;99.25;;
22015;SDS011;64992;51.698;-0.292;2024-02-14T07:01:30;108.50;;;99.57;;
22015;SDS011;64992;51.698;-0.292;2024-02-14T07:03:57;103.18;;;96.10;;
22015;SDS011;64992;51.698;-0.292;2024-02-14T07:06:23;112.75;;;103.03;;
22015;SDS011;64992;51.698;-0.292;2024-02-14T07:08:50;114.85;;;102.68;;
22015;SDS011;64992;51.698;-0.292;2024-02-14T07:11:16;108.47;;;99.22;;
22015;SDS011;64992;51.698;-0.292;2024-02-14T07:13:42;107.97;;;99.38;;
22015;SDS011;64992;51.698;-0.292;2024-02-14T07:16:09;111.63;;;101.97;;
22015;SDS011;64992;51.698;-0.292;2024-02-14T07:18:35;101.35;;;93.70;;
22015;SDS011;64992;51.698;-0.292;2024-02-14T07:21:01;107.13;;;97.68;;
22015;SDS011;64992;51.698;-0.292;2024-02-14T07:23:31;105.97;;;96.70;;
22015;SDS011;64992;51.698;-0.292;2024-02-14T07:25:58;103.18;;;95.30;;
22015;SDS011;64992;51.698;-0.292;2024-02-14T07:28:24;107.53;;;97.68;;
22015;SDS011;64992;51.698;-0.292;2024-02-14T07:30:50;105.32;;;98.45;;
22015;SDS011;64992;51.698;-0.292;2024-02-14T07:33:16;104.85;;;97.97;;
22015;SDS011;64992;51.698;-0.292;2024-02-14T07:35:42;102.95;;;96.43;;
22015;SDS011;64992;51.698;-0.292;2024-02-14T07:38:08;103.90;;;96.90;;
22015;SDS011;64992;51.698;-0.292;2024-02-14T07:40:34;111.13;;;103.95;;
22015;SDS011;64992;51.698;-0.292;2024-02-14T07:43:00;112.13;;;105.63;;
22015;SDS011;64992;51.698;-0.292;2024-02-14T07:45:27;112.22;;;105.35;;
22015;SDS011;64992;51.698;-0.292;2024-02-14T07:47:53;113.50;;;106.70;;
22015;SDS011;64992;51.698;-0.292;2024-02-14T07:50:19;114.18;;;106.82;;
22015;SDS011;64992;51.698;-0.292;2024-02-14T07:52:47;109.85;;;103.03;;
22015;SDS011;64992;51.698;-0.292;2024-02-14T07:55:13;110.68;;;103.70;;
22015;SDS011;64992;51.698;-0.292;2024-02-14T07:57:39;109.32;;;102.03;;
22015;SDS011;64992;51.698;-0.292;2024-02-14T08:00:06;111.70;;;104.63;;
22015;SDS011;64992;51.698;-0.292;2024-02-14T08:02:35;121.18;;;110.85;;
22015;SDS011;64992;51.698;-0.292;2024-02-14T08:05:02;104.22;;;96.32;;
22015;SDS011;64992;51.698;-0.292;2024-02-14T08:07:31;102.80;;;95.80;;
22015;SDS011;64992;51.698;-0.292;2024-02-14T08:09:57;99.90;;;92.65;;
22015;SDS011;64992;51.698;-0.292;2024-02-14T08:12:23;100.88;;;93.93;;
22015;SDS011;64992;51.698;-0.292;2024-02-14T08:14:51;102.63;;;95.03;;
22015;SDS011;64992;51.698;-0.292;2024-02-14T08:17:17;113.75;;;106.07;;
22015;SDS011;64992;51.698;-0.292;2024-02-14T08:19:43;98.60;;;91.65;;
22015;SDS011;64992;51.698;-0.292;2024-02-14T08:22:09;93.20;;;86.70;;
22015;SDS011;64992;51.698;-0.292;2024-02-14T08:24:37;91.35;;;85.35;;
22015;SDS011;64992;51.698;-0.292;2024-02-14T08:27:03;90.50;;;83.93;;
22015;SDS011;64992;51.698;-0.292;2024-02-14T08:29:32;103.22;;;96.03;;
22015;SDS011;64992;51.698;-0.292;2024-02-14T08:31:59;94.10;;;86.60;;
22015;SDS011;64992;51.698;-0.292;2024-02-14T08:34:25;93.85;;;86.30;;
22015;SDS011;64992;51.698;-0.292;2024-02-14T08:36:51;135.10;;;89.75;;
22015;SDS011;64992;51.698;-0.292;2024-02-14T08:39:18;114.45;;;105.20;;
22015;SDS011;64992;51.698;-0.292;2024-02-14T08:41:45;115.57;;;108.05;;
22015;SDS011;64992;51.698;-0.292;2024-02-14T08:44:12;114.05;;;106.30;;
22015;SDS011;64992;51.698;-0.292;2024-02-14T08:46:38;114.47;;;107.30;;
22015;SDS011;64992;51.698;-0.292;2024-02-14T08:49:07;115.07;;;107.35;;
22015;SDS011;64992;51.698;-0.292;2024-02-14T08:51:34;113.40;;;106.50;;
22015;SDS011;64992;51.698;-0.292;2024-02-14T08:54:01;111.97;;;105.20;;
22015;SDS011;64992;51.698;-0.292;2024-02-14T08:56:30;113.78;;;106.30;;
22015;SDS011;64992;51.698;-0.292;2024-02-14T08:59:00;112.25;;;104.47;;
22015;SDS011;64992;51.698;-0.292;2024-02-14T09:01:28;109.20;;;101.97;;
22015;SDS011;64992;51.698;-0.292;2024-02-14T09:03:54;101.63;;;94.50;;
22015;SDS011;64992;51.698;-0.292;2024-02-14T09:06:20;96.95;;;90.80;;
22015;SDS011;64992;51.698;-0.292;2024-02-14T09:08:46;96.97;;;90.55;;
22015;SDS011;64992;51.698;-0.292;2024-02-14T09:11:13;98.80;;;92.28;;
22015;SDS011;64992;51.698;-0.292;2024-02-14T09:13:39;102.70;;;96.20;;
22015;SDS011;64992;51.698;-0.292;2024-02-14T09:16:08;94.72;;;88.57;;
22015;SDS011;64992;51.698;-0.292;2024-02-14T09:18:35;94.50;;;88.32;;
22015;SDS011;64992;51.698;-0.292;2024-02-14T09:21:01;90.30;;;84.63;;
22015;SDS011;64992;51.698;-0.292;2024-02-14T09:23:30;87.72;;;81.57;;
22015;SDS011;64992;51.698;-0.292;2024-02-14T09:25:57;88.10;;;82.68;;
22015;SDS011;64992;51.698;-0.292;2024-02-14T09:28:23;92.95;;;83.05;;
22015;SDS011;64992;51.698;-0.292;2024-02-14T09:30:51;85.95;;;80.35;;
22015;SDS011;64992;51.698;-0.292;2024-02-14T09:33:17;90.63;;;84.80;;
22015;SDS011;64992;51.698;-0.292;2024-02-14T09:35:43;92.88;;;87.07;;
22015;SDS011;64992;51.698;-0.292;2024-02-14T09:38:11;92.07;;;86.00;;
22015;SDS011;64992;51.698;-0.292;2024-02-14T09:40:43;92.25;;;86.15;;
22015;SDS011;64992;51.698;-0.292;2024-02-14T09:43:17;91.05;;;85.43;;
22015;SDS011;64992;51.698;-0.292;2024-02-14T09:45:49;94.25;;;88.45;;
22015;SDS011;64992;51.698;-0.292;2024-02-14T09:48:18;91.53;;;85.63;;
22015;SDS011;64992;51.698;-0.292;2024-02-14T09:50:45;94.90;;;88.20;;
22015;SDS011;64992;51.698;-0.292;2024-02-14T09:53:14;98.20;;;92.13;;
22015;SDS011;64992;51.698;-0.292;2024-02-14T09:55:41;98.50;;;91.85;;
22015;SDS011;64992;51.698;-0.292;2024-02-14T09:58:07;96.18;;;90.20;;
22015;SDS011;64992;51.698;-0.292;2024-02-14T10:00:34;96.85;;;91.22;;
22015;SDS011;64992;51.698;-0.292;2024-02-14T10:03:00;94.63;;;88.57;;
22015;SDS011;64992;51.698;-0.292;2024-02-14T10:05:26;94.90;;;88.85;;
22015;SDS011;64992;51.698;-0.292;2024-02-14T10:07:54;86.70;;;81.60;;
22015;SDS011;64992;51.698;-0.292;2024-02-14T10:10:22;89.05;;;83.45;;
22015;SDS011;64992;51.698;-0.292;2024-02-14T10:12:48;91.47;;;85.72;;
22015;SDS011;64992;51.698;-0.292;2024-02-14T10:15:14;91.70;;;86.30;;
22015;SDS011;64992;51.698;-0.292;2024-02-14T10:17:40;91.30;;;85.30;;
22015;SDS011;64992;51.698;-0.292;2024-02-14T10:20:07;91.50;;;85.28;;
22015;SDS011;64992;51.698;-0.292;2024-02-14T10:22:38;88.03;;;82.68;;
22015;SDS011;64992;51.698;-0.292;2024-02-14T10:25:05;87.25;;;81.82;;
22015;SDS011;64992;51.698;-0.292;2024-02-14T10:27:38;88.25;;;82.05;;
22015;SDS011;64992;51.698;-0.292;2024-02-14T10:30:07;88.45;;;83.18;;
22015;SDS011;64992;51.698;-0.292;2024-02-14T10:32:35;88.47;;;82.85;;
22015;SDS011;64992;51.698;-0.292;2024-02-14T10:35:04;87.40;;;82.30;;
22015;SDS011;64992;51.698;-0.292;2024-02-14T10:37:36;88.72;;;82.55;;
22015;SDS011;64992;51.698;-0.292;2024-02-14T10:40:03;88.57;;;83.28;;
22015;SDS011;64992;51.698;-0.292;2024-02-14T10:42:30;86.13;;;81.13;;
22015;SDS011;64992;51.698;-0.292;2024-02-14T10:44:56;87.82;;;82.72;;
22015;SDS011;64992;51.698;-0.292;2024-02-14T10:47:24;88.00;;;82.13;;
22015;SDS011;64992;51.698;-0.292;2024-02-14T10:49:50;86.90;;;81.72;;
22015;SDS011;64992;51.698;-0.292;2024-02-14T10:52:17;87.63;;;82.20;;
22015;SDS011;64992;51.698;-0.292;2024-02-14T10:54:44;85.43;;;80.32;;
22015;SDS011;64992;51.698;-0.292;2024-02-14T10:57:11;87.90;;;83.03;;
22015;SDS011;64992;51.698;-0.292;2024-02-14T10:59:42;90.90;;;85.35;;
22015;SDS011;64992;51.698;-0.292;2024-02-14T11:02:09;89.85;;;84.68;;
22015;SDS011;64992;51.698;-0.292;2024-02-14T11:04:36;94.25;;;86.97;;
22015;SDS011;64992;51.698;-0.292;2024-02-14T11:07:02;87.25;;;82.18;;
22015;SDS011;64992;51.698;-0.292;2024-02-14T11:09:47;85.55;;;80.63;;
22015;SDS011;64992;51.698;-0.292;2024-02-14T11:12:13;84.95;;;80.03;;
22015;SDS011;64992;51.698;-0.292;2024-02-14T11:14:42;88.72;;;82.95;;
22015;SDS011;64992;51.698;-0.292;2024-02-14T11:17:10;88.45;;;82.45;;
22015;SDS011;64992;51.698;-0.292;2024-02-14T11:19:38;77.07;;;72.53;;
22015;SDS011;64992;51.698;-0.292;2024-02-14T11:22:12;92.53;;;87.35;;
22015;SDS011;64992;51.698;-0.292;2024-02-14T11:24:40;86.72;;;81.72;;
22015;SDS011;64992;51.698;-0.292;2024-02-14T11:27:10;84.93;;;80.20;;
22015;SDS011;64992;51.698;-0.292;2024-02-14T11:29:38;80.47;;;75.72;;
22015;SDS011;64992;51.698;-0.292;2024-02-14T11:32:06;86.20;;;81.38;;
22015;SDS011;64992;51.698;-0.292;2024-02-14T11:34:35;77.88;;;73.40;;
22015;SDS011;64992;51.698;-0.292;2024-02-14T11:37:01;81.70;;;76.78;;
22015;SDS011;64992;51.698;-0.292;2024-02-14T11:39:29;78.18;;;73.72;;
22015;SDS011;64992;51.698;-0.292;2024-02-14T11:41:56;74.85;;;70.22;;
22015;SDS011;64992;51.698;-0.292;2024-02-14T11:44:24;76.00;;;71.03;;
22015;SDS011;64992;51.698;-0.292;2024-02-14T11:46:51;77.38;;;73.15;;
22015;SDS011;64992;51.698;-0.292;2024-02-14T11:49:17;81.85;;;77.18;;
22015;SDS011;64992;51.698;-0.292;2024-02-14T11:51:43;86.15;;;80.30;;
22015;SDS011;64992;51.698;-0.292;2024-02-14T11:54:09;89.85;;;83.70;;
22015;SDS011;64992;51.698;-0.292;2024-02-14T11:56:36;88.10;;;82.72;;
22015;SDS011;64992;51.698;-0.292;2024-02-14T11:59:03;89.03;;;83.93;;
22015;SDS011;64992;51.698;-0.292;2024-02-14T12:01:36;93.45;;;88.05;;
22015;SDS011;64992;51.698;-0.292;2024-02-14T12:04:03;89.28;;;84.10;;
22015;SDS011;64992;51.698;-0.292;2024-02-14T12:06:30;81.45;;;76.47;;
22015;SDS011;64992;51.698;-0.292;2024-02-14T12:08:58;77.45;;;72.70;;
22015;SDS011;64992;51.698;-0.292;2024-02-14T12:11:27;77.35;;;72.55;;
22015;SDS011;64992;51.698;-0.292;2024-02-14T12:13:54;78.53;;;73.93;;
22015;SDS011;64992;51.698;-0.292;2024-02-14T12:16:21;80.80;;;75.60;;
22015;SDS011;64992;51.698;-0.292;2024-02-14T12:18:47;79.60;;;75.03;;
22015;SDS011;64992;51.698;-0.292;2024-02-14T12:21:13;79.15;;;74.53;;
22015;SDS011;64992;51.698;-0.292;2024-02-14T12:23:40;79.68;;;74.60;;
22015;SDS011;64992;51.698;-0.292;2024-02-14T12:26:07;74.55;;;70.20;;
22015;SDS011;64992;51.698;-0.292;2024-02-14T12:28:40;73.28;;;69.18;;
22015;SDS011;64992;51.698;-0.292;2024-02-14T12:31:06;72.43;;;68.30;;
22015;SDS011;64992;51.698;-0.292;2024-02-14T12:33:32;74.40;;;69.82;;
22015;SDS011;64992;51.698;-0.292;2024-02-14T12:36:00;76.40;;;71.78;;
22015;SDS011;64992;51.698;-0.292;2024-02-14T12:38:26;79.53;;;74.78;;
22015;SDS011;64992;51.698;-0.292;2024-02-14T12:40:52;76.10;;;71.85;;
22015;SDS011;64992;51.698;-0.292;2024-02-14T12:43:19;73.55;;;69.47;;
22015;SDS011;64992;51.698;-0.292;2024-02-14T12:45:45;74.13;;;69.85;;
22015;SDS011;64992;51.698;-0.292;2024-02-14T12:48:12;74.75;;;70.53;;
22015;SDS011;64992;51.698;-0.292;2024-02-14T12:50:39;73.32;;;69.35;;
22015;SDS011;64992;51.698;-0.292;2024-02-14T12:53:10;74.20;;;69.55;;
22015;SDS011;64992;51.698;-0.292;2024-02-14T12:55:36;75.03;;;70.75;;
22015;SDS011;64992;51.698;-0.292;2024-02-14T12:58:02;70.63;;;66.07;;
22015;SDS011;64992;51.698;-0.292;2024-02-14T13:00:29;68.68;;;64.95;;
22015;SDS011;64992;51.698;-0.292;2024-02-14T13:02:57;72.70;;;68.40;;
22015;SDS011;64992;51.698;-0.292;2024-02-14T13:05:25;72.15;;;67.85;;
22015;SDS011;64992;51.698;-0.292;2024-02-14T13:07:51;70.60;;;66.57;;
22015;SDS011;64992;51.698;-0.292;2024-02-14T13:10:17;70.55;;;66.65;;
22015;SDS011;64992;51.698;-0.292;2024-02-14T13:12:43;71.32;;;67.15;;
22015;SDS011;64992;51.698;-0.292;2024-02-14T13:15:10;74.65;;;70.32;;
22015;SDS011;64992;51.698;-0.292;2024-02-14T13:17:36;74.85;;;70.00;;
22015;SDS011;64992;51.698;-0.292;2024-02-14T13:20:03;76.00;;;71.55;;
22015;SDS011;64992;51.698;-0.292;2024-02-14T13:22:29;97.05;;;92.05;;
22015;SDS011;64992;51.698;-0.292;2024-02-14T13:24:55;73.38;;;69.13;;
22015;SDS011;64992;51.698;-0.292;2024-02-14T13:27:21;72.10;;;67.75;;
22015;SDS011;64992;51.698;-0.292;2024-02-14T13:29:48;72.88;;;68.45;;
22015;SDS011;64992;51.698;-0.292;2024-02-14T13:32:14;70.90;;;67.03;;
22015;SDS011;64992;51.698;-0.292;2024-02-14T13:34:40;71.05;;;67.07;;
22015;SDS011;64992;51.698;-0.292;2024-02-14T13:37:08;71.18;;;67.03;;
22015;SDS011;64992;51.698;-0.292;2024-02-14T13:39:34;70.55;;;66.82;;
22015;SDS011;64992;51.698;-0.292;2024-02-14T13:42:00;67.60;;;63.47;;
22015;SDS011;64992;51.698;-0.292;2024-02-14T13:44:26;66.28;;;62.58;;
22015;SDS011;64992;51.698;-0.292;2024-02-14T13:46:53;66.72;;;62.95;;
22015;SDS011;64992;51.698;-0.292;2024-02-14T13:49:19;68.32;;;64.25;;
22015;SDS011;64992;51.698;-0.292;2024-02-14T13:51:52;68.05;;;64.32;;
22015;SDS011;64992;51.698;-0.292;2024-02-14T13:54:19;69.53;;;65.82;;
22015;SDS011;64992;51.698;-0.292;2024-02-14T13:56:45;66.22;;;62.72;;
22015;SDS011;64992;51.698;-0.292;2024-02-14T13:59:13;68.97;;;65.22;;